Preview of NWS' New Version of Forecast
This preview is not operational and should not be used for support decisions.

Terminal Aerodrome Forecast (TAF)

Issued by National Weather Service (NWS)

                            
988 
FTUS42 KKEY 270754 AAB
TAFMTH
TAF AMD
KMTH 270754Z 2708/2806 15018G28KT P6SM -RA VCSH SCT014 BKN020
      BKN030
     FM271000 19026G35KT 5SM -RA VCSH FEW010 SCT012 OVC025
     FM271500 17018G30KT P6SM VCSH SCT010 SCT015 BKN050=